createdAt,value
2023-03-19T00:00:27.091Z,0.00
2023-03-19T00:01:27.066Z,0.00
2023-03-19T00:02:27.066Z,0.00
2023-03-19T00:03:27.063Z,0.00
2023-03-19T00:04:27.034Z,0.00
2023-03-19T00:05:27.024Z,0.00
2023-03-19T00:06:27.055Z,0.00
2023-03-19T00:07:26.991Z,0.00
2023-03-19T00:08:27.036Z,0.00
2023-03-19T00:09:26.996Z,0.00
2023-03-19T00:10:27.002Z,0.00
2023-03-19T00:11:26.972Z,0.00
2023-03-19T00:12:27.057Z,0.00
2023-03-19T00:13:26.984Z,0.00
2023-03-19T00:14:26.938Z,0.00
2023-03-19T00:15:27.009Z,0.00
2023-03-19T00:16:26.929Z,0.00
2023-03-19T00:17:26.922Z,0.00
2023-03-19T00:18:26.902Z,0.00
2023-03-19T00:19:26.878Z,0.00
2023-03-19T00:20:26.893Z,0.00
2023-03-19T00:21:27.914Z,0.00
2023-03-19T00:22:26.900Z,0.00
2023-03-19T00:23:26.852Z,0.00
2023-03-19T00:24:26.849Z,0.00
2023-03-19T00:25:26.838Z,0.00
2023-03-19T00:26:26.816Z,0.00
2023-03-19T00:27:26.829Z,0.00
2023-03-19T00:28:26.792Z,0.00
2023-03-19T00:29:26.854Z,0.00
2023-03-19T00:30:26.817Z,0.00
2023-03-19T00:31:26.788Z,0.00
2023-03-19T00:32:26.761Z,0.00
2023-03-19T00:33:26.755Z,0.00
2023-03-19T00:34:26.736Z,0.00
2023-03-19T00:35:26.745Z,0.00
2023-03-19T00:36:26.723Z,0.00
2023-03-19T00:37:26.723Z,0.00
2023-03-19T00:38:26.738Z,0.00
2023-03-19T00:39:26.782Z,0.00
2023-03-19T00:40:26.688Z,0.00
2023-03-19T00:41:26.684Z,0.00
2023-03-19T00:42:26.676Z,0.00
2023-03-19T00:43:26.638Z,0.00
2023-03-19T00:44:26.639Z,0.00
2023-03-19T00:45:26.672Z,0.00
2023-03-19T00:46:26.696Z,0.00
2023-03-19T00:47:26.615Z,0.00
2023-03-19T00:48:26.579Z,0.00
2023-03-19T00:49:26.597Z,0.00
2023-03-19T00:50:26.671Z,0.00
2023-03-19T00:51:26.589Z,0.00
2023-03-19T00:52:26.550Z,0.00
2023-03-19T00:53:26.545Z,0.00
2023-03-19T00:54:26.558Z,0.00
2023-03-19T00:55:26.531Z,0.00
2023-03-19T00:56:26.538Z,0.00
2023-03-19T00:57:26.508Z,0.00
2023-03-19T00:58:26.495Z,0.00
2023-03-19T00:59:26.499Z,0.00
2023-03-19T01:00:26.491Z,0.00
2023-03-19T01:01:26.536Z,0.00
2023-03-19T01:02:26.458Z,0.00
2023-03-19T01:03:26.459Z,0.00
2023-03-19T01:04:26.500Z,0.00
2023-03-19T01:05:26.411Z,0.00
2023-03-19T01:06:26.423Z,0.00
2023-03-19T01:07:26.486Z,0.00
2023-03-19T01:08:26.403Z,0.00
2023-03-19T01:09:26.390Z,0.00
2023-03-19T01:10:26.384Z,0.00
2023-03-19T01:11:26.352Z,0.00
2023-03-19T01:12:26.345Z,0.00
2023-03-19T01:13:26.337Z,0.00
2023-03-19T01:14:26.365Z,0.00
2023-03-19T01:15:26.313Z,0.00
2023-03-19T01:16:26.315Z,0.00
2023-03-19T01:17:26.300Z,0.00
2023-03-19T01:18:26.283Z,0.00
2023-03-19T01:19:26.317Z,0.00
2023-03-19T01:20:26.330Z,0.00
2023-03-19T01:21:26.266Z,0.00
2023-03-19T01:22:26.266Z,0.00
2023-03-19T01:23:26.293Z,0.00
2023-03-19T01:24:26.261Z,0.00
2023-03-19T01:25:26.345Z,0.00
2023-03-19T01:26:26.253Z,0.00
2023-03-19T01:27:26.210Z,0.00
2023-03-19T01:28:26.197Z,0.00
2023-03-19T01:29:26.190Z,0.00
2023-03-19T01:30:26.182Z,0.00
2023-03-19T01:31:26.186Z,0.00
2023-03-19T01:32:26.199Z,0.00
2023-03-19T01:33:26.150Z,0.00
2023-03-19T01:34:26.142Z,0.00
2023-03-19T01:35:26.136Z,0.00
2023-03-19T01:36:26.109Z,0.00
2023-03-19T01:37:26.132Z,0.00
2023-03-19T01:38:26.118Z,0.00
2023-03-19T01:39:26.097Z,0.00
2023-03-19T01:40:26.088Z,0.00
2023-03-19T01:41:27.102Z,0.00
2023-03-19T01:42:26.066Z,0.00
2023-03-19T01:43:26.048Z,0.00
2023-03-19T01:44:26.131Z,0.00
2023-03-19T01:45:26.032Z,0.00
2023-03-19T01:46:26.062Z,0.00
2023-03-19T01:47:26.024Z,0.00
2023-03-19T01:48:26.064Z,0.00
2023-03-19T01:49:26.003Z,0.00
2023-03-19T01:50:58.936Z,0.00
2023-03-19T01:51:25.979Z,0.00
2023-03-19T01:52:25.947Z,0.00
2023-03-19T01:53:25.952Z,0.00
2023-03-19T01:54:25.957Z,0.00
2023-03-19T01:55:25.921Z,0.00
2023-03-19T01:56:25.925Z,0.00
2023-03-19T01:57:25.920Z,0.00
2023-03-19T01:58:26.106Z,0.00
2023-03-19T01:59:25.892Z,0.00
2023-03-19T02:00:25.897Z,0.00
2023-03-19T02:01:25.882Z,0.00
2023-03-19T02:02:25.853Z,0.00
2023-03-19T02:03:25.900Z,0.00
2023-03-19T02:04:25.850Z,0.00
2023-03-19T02:05:25.881Z,0.00
2023-03-19T02:06:25.809Z,0.00
2023-03-19T02:07:25.804Z,0.00
2023-03-19T02:08:25.785Z,0.00
2023-03-19T02:09:25.802Z,0.00
2023-03-19T02:10:25.777Z,0.00
2023-03-19T02:11:25.804Z,0.00
2023-03-19T02:12:25.741Z,0.00
2023-03-19T02:13:25.774Z,0.00
2023-03-19T02:14:25.808Z,0.00
2023-03-19T02:15:25.887Z,0.00
2023-03-19T02:16:25.791Z,0.00
2023-03-19T02:17:25.711Z,0.00
2023-03-19T02:18:25.773Z,0.00
2023-03-19T02:19:25.690Z,0.00
2023-03-19T02:20:25.723Z,0.00
2023-03-19T02:21:25.697Z,0.00
2023-03-19T02:22:25.672Z,0.00
2023-03-19T02:23:25.646Z,0.00
2023-03-19T02:24:25.642Z,0.00
2023-03-19T02:25:25.638Z,0.00
2023-03-19T02:26:25.645Z,0.00
2023-03-19T02:27:25.617Z,0.00
2023-03-19T02:28:25.604Z,0.00
2023-03-19T02:29:25.633Z,0.00
2023-03-19T02:30:25.586Z,0.00
2023-03-19T02:31:25.605Z,0.00
2023-03-19T02:32:25.576Z,0.00
2023-03-19T02:33:25.552Z,0.00
2023-03-19T02:34:25.569Z,0.00
2023-03-19T02:35:25.538Z,0.00
2023-03-19T02:36:25.517Z,0.00
2023-03-19T02:37:25.523Z,0.00
2023-03-19T02:38:25.535Z,0.00
2023-03-19T02:39:25.498Z,0.00
2023-03-19T02:40:25.511Z,0.00
2023-03-19T02:41:25.482Z,0.00
2023-03-19T02:42:25.505Z,0.00
2023-03-19T02:43:25.476Z,0.00
2023-03-19T02:44:25.445Z,0.00
2023-03-19T02:45:25.464Z,0.00
2023-03-19T02:46:25.550Z,0.00
2023-03-19T02:47:25.412Z,0.00
2023-03-19T02:48:25.501Z,0.00
2023-03-19T02:49:25.396Z,0.00
2023-03-19T02:50:25.427Z,0.00
2023-03-19T02:51:25.377Z,0.00
2023-03-19T02:52:25.372Z,0.00
2023-03-19T02:53:25.393Z,0.00
2023-03-19T02:54:25.347Z,0.00
2023-03-19T02:55:25.332Z,0.00
2023-03-19T02:56:25.344Z,0.00
2023-03-19T02:57:25.319Z,0.00
2023-03-19T02:58:25.313Z,0.00
2023-03-19T02:59:25.361Z,0.00
2023-03-19T03:00:25.288Z,0.00
2023-03-19T03:01:25.291Z,0.00
2023-03-19T03:02:25.385Z,0.00
2023-03-19T03:03:25.262Z,0.00
2023-03-19T03:04:25.276Z,0.00
2023-03-19T03:05:25.293Z,0.00
2023-03-19T03:06:25.239Z,0.00
2023-03-19T03:07:25.243Z,0.00
2023-03-19T03:08:25.235Z,0.00
2023-03-19T03:09:25.236Z,0.00
2023-03-19T03:10:25.206Z,0.00
2023-03-19T03:11:25.211Z,0.00
2023-03-19T03:12:25.188Z,0.00
2023-03-19T03:13:25.186Z,0.00
2023-03-19T03:14:25.172Z,0.00
2023-03-19T03:15:25.167Z,0.00
2023-03-19T03:16:25.205Z,0.00
2023-03-19T03:17:25.144Z,0.00
2023-03-19T03:18:25.160Z,0.00
2023-03-19T03:19:25.130Z,0.00
2023-03-19T03:20:25.115Z,0.00
2023-03-19T03:21:25.100Z,0.00
2023-03-19T03:22:25.113Z,0.00
2023-03-19T03:23:25.092Z,0.00
2023-03-19T03:24:25.086Z,0.00
2023-03-19T03:25:25.052Z,0.00
2023-03-19T03:26:25.065Z,0.00
2023-03-19T03:27:25.068Z,0.00
2023-03-19T03:28:25.062Z,0.00
2023-03-19T03:29:25.045Z,0.00
2023-03-19T03:30:25.018Z,0.00
2023-03-19T03:31:25.056Z,0.00
2023-03-19T03:32:24.987Z,0.00
2023-03-19T03:33:24.986Z,0.00
2023-03-19T03:34:25.008Z,0.00
2023-03-19T03:35:25.015Z,0.00
2023-03-19T03:36:24.965Z,0.00
2023-03-19T03:37:25.018Z,0.00
2023-03-19T03:38:24.934Z,0.00
2023-03-19T03:39:24.939Z,0.00
2023-03-19T03:40:24.926Z,0.00
2023-03-19T03:41:24.933Z,0.00
2023-03-19T03:42:24.903Z,0.00
2023-03-19T03:43:24.897Z,0.00
2023-03-19T03:44:25.888Z,0.00
2023-03-19T03:45:24.858Z,0.00
2023-03-19T03:46:24.916Z,0.00
2023-03-19T03:47:24.869Z,0.00
2023-03-19T03:48:24.887Z,0.00
2023-03-19T03:49:24.829Z,0.00
2023-03-19T03:50:24.845Z,0.00
2023-03-19T03:51:24.825Z,0.00
2023-03-19T03:52:24.796Z,0.00
2023-03-19T03:53:24.809Z,0.00
2023-03-19T03:54:24.789Z,0.00
2023-03-19T03:55:24.774Z,0.00
2023-03-19T03:56:24.762Z,0.00
2023-03-19T03:57:24.777Z,0.00
2023-03-19T03:58:24.764Z,0.00
2023-03-19T03:59:24.737Z,0.00
2023-03-19T04:00:24.762Z,0.00
2023-03-19T04:01:24.713Z,0.00
2023-03-19T04:02:24.776Z,0.00
2023-03-19T04:03:24.793Z,0.00
2023-03-19T04:04:24.679Z,0.00
2023-03-19T04:05:24.717Z,0.00
2023-03-19T04:06:24.666Z,0.00
2023-03-19T04:07:24.667Z,0.00
2023-03-19T04:08:24.661Z,0.00
2023-03-19T04:09:24.630Z,0.00
2023-03-19T04:10:24.607Z,0.00
2023-03-19T04:11:24.626Z,0.00
2023-03-19T04:12:24.588Z,0.00
2023-03-19T04:13:24.612Z,0.00
2023-03-19T04:14:24.579Z,0.00
2023-03-19T04:15:24.631Z,0.00
2023-03-19T04:16:24.600Z,0.00
2023-03-19T04:17:24.577Z,0.00
2023-03-19T04:18:24.579Z,0.00
2023-03-19T04:19:24.538Z,0.00
2023-03-19T04:20:24.531Z,0.00
2023-03-19T04:21:24.517Z,0.00
2023-03-19T04:22:24.505Z,0.00
2023-03-19T04:23:24.485Z,0.00
2023-03-19T04:24:24.577Z,0.00
2023-03-19T04:25:24.497Z,0.00
2023-03-19T04:26:24.474Z,0.00
2023-03-19T04:27:24.457Z,0.00
2023-03-19T04:28:24.448Z,0.00
2023-03-19T04:29:24.436Z,0.00
2023-03-19T04:30:24.459Z,0.00
2023-03-19T04:31:25.483Z,0.00
2023-03-19T04:32:24.410Z,0.00
2023-03-19T04:33:24.407Z,0.00
2023-03-19T04:34:24.394Z,0.00
2023-03-19T04:35:24.403Z,0.00
2023-03-19T04:36:24.398Z,0.00
2023-03-19T04:37:24.374Z,0.00
2023-03-19T04:38:24.352Z,0.00
2023-03-19T04:39:24.402Z,0.00
2023-03-19T04:40:24.336Z,0.00
2023-03-19T04:41:24.318Z,0.00
2023-03-19T04:42:24.313Z,0.00
2023-03-19T04:43:24.319Z,0.00
2023-03-19T04:44:24.310Z,0.00
2023-03-19T04:45:24.362Z,0.00
2023-03-19T04:46:24.317Z,0.00
2023-03-19T04:47:24.262Z,0.00
2023-03-19T04:48:24.255Z,0.00
2023-03-19T04:49:24.249Z,0.00
2023-03-19T04:50:24.268Z,0.00
2023-03-19T04:51:24.213Z,0.00
2023-03-19T04:52:24.209Z,0.00
2023-03-19T04:53:24.216Z,0.00
2023-03-19T04:54:24.216Z,0.00
2023-03-19T04:55:24.207Z,0.00
2023-03-19T04:56:24.169Z,0.00
2023-03-19T04:57:25.194Z,0.00
2023-03-19T04:58:24.156Z,0.00
2023-03-19T04:59:24.160Z,0.00
2023-03-19T05:00:24.133Z,0.00
2023-03-19T05:01:24.151Z,4.00
2023-03-19T05:02:24.117Z,4.00
2023-03-19T05:03:24.101Z,0.00
2023-03-19T05:04:24.134Z,4.00
2023-03-19T05:05:24.085Z,4.00
2023-03-19T05:06:24.068Z,8.00
2023-03-19T05:07:25.093Z,4.00
2023-03-19T05:08:24.053Z,8.00
2023-03-19T05:09:24.066Z,8.00
2023-03-19T05:10:24.053Z,8.00
2023-03-19T05:11:24.026Z,8.00
2023-03-19T05:12:24.038Z,8.00
2023-03-19T05:13:24.000Z,8.00
2023-03-19T05:14:23.989Z,16.00
2023-03-19T05:15:24.995Z,16.00
2023-03-19T05:16:23.983Z,16.00
2023-03-19T05:17:23.982Z,20.00
2023-03-19T05:18:23.974Z,24.00
2023-03-19T05:19:23.951Z,28.00
2023-03-19T05:20:23.918Z,32.00
2023-03-19T05:21:24.932Z,36.00
2023-03-19T05:22:23.948Z,36.00
2023-03-19T05:23:23.930Z,40.00
2023-03-19T05:24:23.908Z,44.00
2023-03-19T05:25:23.908Z,44.00
2023-03-19T05:26:23.913Z,48.00
2023-03-19T05:27:23.883Z,48.00
2023-03-19T05:28:23.865Z,52.00
2023-03-19T05:29:23.846Z,56.00
2023-03-19T05:30:23.852Z,60.00
2023-03-19T05:31:23.854Z,64.00
2023-03-19T05:32:23.833Z,68.00
2023-03-19T05:33:23.808Z,76.00
2023-03-19T05:34:23.819Z,80.00
2023-03-19T05:35:23.866Z,84.00
2023-03-19T05:36:23.768Z,92.00
2023-03-19T05:37:23.794Z,104.00
2023-03-19T05:38:23.754Z,112.00
2023-03-19T05:39:23.779Z,128.00
2023-03-19T05:40:23.744Z,136.00
2023-03-19T05:41:23.764Z,148.00
2023-03-19T05:42:23.730Z,160.00
2023-03-19T05:43:23.722Z,172.00
2023-03-19T05:44:23.723Z,188.00
2023-03-19T05:45:23.700Z,204.00
2023-03-19T05:46:23.694Z,224.00
2023-03-19T05:47:23.669Z,244.00
2023-03-19T05:48:23.673Z,272.00
2023-03-19T05:49:23.672Z,300.00
2023-03-19T05:50:23.658Z,336.00
2023-03-19T05:51:23.634Z,384.00
2023-03-19T05:52:23.622Z,440.00
2023-03-19T05:53:23.619Z,508.00
2023-03-19T05:54:23.642Z,580.00
2023-03-19T05:55:23.615Z,636.00
2023-03-19T05:56:23.595Z,688.00
2023-03-19T05:57:23.576Z,744.00
2023-03-19T05:58:23.593Z,800.00
2023-03-19T05:59:23.585Z,864.00
2023-03-19T06:00:23.548Z,932.00
2023-03-19T06:01:23.566Z,1000.00
2023-03-19T06:02:23.601Z,1068.00
2023-03-19T06:03:23.640Z,1132.00
2023-03-19T06:04:23.548Z,1188.00
2023-03-19T06:05:23.511Z,1240.00
2023-03-19T06:06:23.490Z,1292.00
2023-03-19T06:07:23.471Z,1352.00
2023-03-19T06:08:23.513Z,1432.00
2023-03-19T06:09:23.462Z,1512.00
2023-03-19T06:10:23.460Z,1592.00
2023-03-19T06:11:23.466Z,1636.00
2023-03-19T06:12:23.435Z,1628.00
2023-03-19T06:13:23.420Z,1588.00
2023-03-19T06:14:23.434Z,1532.00
2023-03-19T06:15:23.389Z,1476.00
2023-03-19T06:16:24.419Z,1408.00
2023-03-19T06:17:23.386Z,1336.00
2023-03-19T06:18:23.376Z,1260.00
2023-03-19T06:19:23.359Z,1196.00
2023-03-19T06:20:23.352Z,1160.00
2023-03-19T06:21:23.330Z,1144.00
2023-03-19T06:22:24.332Z,1120.00
2023-03-19T06:23:23.345Z,1100.00
2023-03-19T06:24:23.391Z,1088.00
2023-03-19T06:25:23.298Z,1084.00
2023-03-19T06:26:23.297Z,1080.00
2023-03-19T06:27:23.313Z,1088.00
2023-03-19T06:28:23.282Z,1096.00
2023-03-19T06:29:23.268Z,1108.00
2023-03-19T06:30:23.290Z,1128.00
2023-03-19T06:31:23.297Z,1160.00
2023-03-19T06:32:23.290Z,1192.00
2023-03-19T06:33:23.236Z,1224.00
2023-03-19T06:34:23.211Z,1240.00
2023-03-19T06:35:23.402Z,1240.00
2023-03-19T06:36:23.206Z,1236.00
2023-03-19T06:37:23.215Z,1248.00
2023-03-19T06:38:23.193Z,1264.00
2023-03-19T06:39:23.188Z,1284.00
2023-03-19T06:40:23.179Z,1320.00
2023-03-19T06:41:23.216Z,1368.00
2023-03-19T06:42:23.250Z,1404.00
2023-03-19T06:43:23.147Z,1412.00
2023-03-19T06:44:23.144Z,1412.00
2023-03-19T06:45:23.106Z,1388.00
2023-03-19T06:46:23.189Z,1352.00
2023-03-19T06:47:23.105Z,1336.00
2023-03-19T06:48:23.103Z,1332.00
2023-03-19T06:49:23.064Z,1324.00
2023-03-19T06:50:23.104Z,1304.00
2023-03-19T06:51:23.042Z,1280.00
2023-03-19T06:52:23.064Z,1264.00
2023-03-19T06:53:23.057Z,1256.00
2023-03-19T06:54:23.020Z,1248.00
2023-03-19T06:55:23.065Z,1232.00
2023-03-19T06:56:22.994Z,1216.00
2023-03-19T06:57:22.995Z,1208.00
2023-03-19T06:58:23.024Z,1212.00
2023-03-19T06:59:22.993Z,1224.00
2023-03-19T07:00:22.974Z,1244.00
2023-03-19T07:01:23.043Z,1268.00
2023-03-19T07:02:22.966Z,1296.00
2023-03-19T07:03:23.007Z,1324.00
2023-03-19T07:04:23.041Z,1348.00
2023-03-19T07:05:22.920Z,1380.00
2023-03-19T07:06:22.907Z,1416.00
2023-03-19T07:07:22.963Z,1460.00
2023-03-19T07:08:22.883Z,1524.00
2023-03-19T07:09:22.884Z,1584.00
2023-03-19T07:10:22.874Z,1628.00
2023-03-19T07:11:22.854Z,1672.00
2023-03-19T07:12:22.905Z,1716.00
2023-03-19T07:13:22.835Z,1764.00
2023-03-19T07:14:22.854Z,1832.00
2023-03-19T07:15:22.835Z,1916.00
2023-03-19T07:16:22.837Z,2032.00
2023-03-19T07:17:22.796Z,2176.00
2023-03-19T07:18:22.840Z,2332.00
2023-03-19T07:19:22.779Z,2448.00
2023-03-19T07:20:22.773Z,2524.00
2023-03-19T07:21:22.764Z,2580.00
2023-03-19T07:22:22.754Z,2632.00
2023-03-19T07:23:23.752Z,2672.00
2023-03-19T07:24:22.732Z,2736.00
2023-03-19T07:25:22.717Z,2816.00
2023-03-19T07:26:22.708Z,2884.00
2023-03-19T07:27:22.726Z,2924.00
2023-03-19T07:28:22.752Z,2960.00
2023-03-19T07:29:22.711Z,2988.00
2023-03-19T07:30:22.665Z,3012.00
2023-03-19T07:31:22.799Z,3032.00
2023-03-19T07:32:22.674Z,3064.00
2023-03-19T07:33:22.746Z,3104.00
2023-03-19T07:34:22.616Z,3164.00
2023-03-19T07:35:23.667Z,3292.00
2023-03-19T07:36:22.628Z,3476.00
2023-03-19T07:37:22.722Z,3684.00
2023-03-19T07:38:23.606Z,3876.00
2023-03-19T07:39:22.605Z,4028.00
2023-03-19T07:40:22.596Z,4140.00
2023-03-19T07:41:22.565Z,4220.00
2023-03-19T07:42:22.549Z,4280.00
2023-03-19T07:43:22.555Z,4356.00
2023-03-19T07:44:22.559Z,4460.00
2023-03-19T07:45:22.556Z,4572.00
2023-03-19T07:46:22.519Z,4696.00
2023-03-19T07:47:28.975Z,4852.00
2023-03-19T07:48:24.514Z,5024.00
2023-03-19T07:49:22.497Z,5220.00
2023-03-19T07:50:22.501Z,5264.00
2023-03-19T07:51:54.383Z,5316.00
2023-03-19T07:52:22.483Z,5340.00
2023-03-19T07:53:22.464Z,5352.00
2023-03-19T07:54:22.483Z,5348.00
2023-03-19T07:55:22.456Z,5364.00
2023-03-19T07:56:22.429Z,5384.00
2023-03-19T07:57:22.445Z,5440.00
2023-03-19T07:58:22.430Z,5528.00
2023-03-19T07:59:22.441Z,5624.00
2023-03-19T08:00:22.453Z,5728.00
2023-03-19T08:01:22.420Z,5816.00
2023-03-19T08:02:23.299Z,5916.00
2023-03-19T08:03:23.407Z,6000.00
2023-03-19T08:04:22.382Z,6076.00
2023-03-19T08:05:22.512Z,6144.00
2023-03-19T08:06:22.390Z,6228.00
2023-03-19T08:07:22.367Z,6344.00
2023-03-19T08:08:22.340Z,6504.00
2023-03-19T08:09:22.330Z,6692.00
2023-03-19T08:10:22.432Z,6968.00
2023-03-19T08:11:22.335Z,7348.00
2023-03-19T08:12:22.356Z,7792.00
2023-03-19T08:13:22.282Z,8388.00
2023-03-19T08:14:22.344Z,8692.00
2023-03-19T08:15:22.244Z,9056.00
2023-03-19T08:16:22.310Z,9392.00
2023-03-19T08:17:22.260Z,9696.00
2023-03-19T08:18:22.250Z,10104.00
2023-03-19T08:19:22.233Z,10956.00
2023-03-19T08:20:22.228Z,11196.00
2023-03-19T08:21:22.246Z,13360.00
2023-03-19T08:22:22.186Z,15240.00
2023-03-19T08:23:22.194Z,15096.00
2023-03-19T08:24:22.242Z,13720.00
2023-03-19T08:25:22.165Z,14208.00
2023-03-19T08:26:22.149Z,16384.00
2023-03-19T08:27:22.178Z,17664.00
2023-03-19T08:28:22.145Z,18048.00
2023-03-19T08:29:22.140Z,17184.00
2023-03-19T08:30:22.119Z,16640.00
2023-03-19T08:31:22.114Z,16864.00
2023-03-19T08:32:22.091Z,16320.00
2023-03-19T08:33:22.077Z,17952.00
2023-03-19T08:34:22.088Z,16672.00
2023-03-19T08:35:22.063Z,16352.00
2023-03-19T08:36:22.080Z,15060.00
2023-03-19T08:37:22.038Z,14872.00
2023-03-19T08:38:22.049Z,13880.00
2023-03-19T08:39:22.054Z,14160.00
2023-03-19T08:40:22.028Z,13024.00
2023-03-19T08:41:22.005Z,12728.00
2023-03-19T08:42:22.150Z,12328.00
2023-03-19T08:43:22.185Z,12072.00
2023-03-19T08:44:22.015Z,11828.00
2023-03-19T08:45:21.972Z,11432.00
2023-03-19T08:46:22.081Z,11040.00
2023-03-19T08:47:21.971Z,10704.00
2023-03-19T08:48:21.946Z,10460.00
2023-03-19T08:49:21.932Z,10224.00
2023-03-19T08:50:21.922Z,9980.00
2023-03-19T08:51:21.957Z,9748.00
2023-03-19T08:52:21.909Z,9552.00
2023-03-19T08:53:21.883Z,9384.00
2023-03-19T08:54:23.056Z,9292.00
2023-03-19T08:55:22.880Z,9160.00
2023-03-19T08:56:21.852Z,9132.00
2023-03-19T08:57:21.838Z,9088.00
2023-03-19T08:58:21.902Z,8996.00
2023-03-19T08:59:21.831Z,8892.00
2023-03-19T09:00:21.816Z,8884.00
2023-03-19T09:01:21.862Z,8924.00
2023-03-19T09:02:21.808Z,8956.00
2023-03-19T09:03:21.825Z,9004.00
2023-03-19T09:04:21.801Z,9132.00
2023-03-19T09:05:21.767Z,9308.00
2023-03-19T09:06:21.767Z,9656.00
2023-03-19T09:07:21.738Z,10236.00
2023-03-19T09:08:21.733Z,10028.00
2023-03-19T09:09:21.776Z,10080.00
2023-03-19T09:10:21.758Z,10188.00
2023-03-19T09:11:22.772Z,10292.00
2023-03-19T09:12:21.698Z,10484.00
2023-03-19T09:13:21.718Z,10620.00
2023-03-19T09:14:21.754Z,10864.00
2023-03-19T09:15:21.678Z,11284.00
2023-03-19T09:16:21.806Z,11952.00
2023-03-19T09:17:21.640Z,12232.00
2023-03-19T09:18:21.686Z,12324.00
2023-03-19T09:19:21.652Z,12300.00
2023-03-19T09:20:21.657Z,12224.00
2023-03-19T09:21:21.638Z,12260.00
2023-03-19T09:22:21.600Z,12368.00
2023-03-19T09:23:21.604Z,12488.00
2023-03-19T09:24:21.574Z,12768.00
2023-03-19T09:25:21.580Z,13020.00
2023-03-19T09:26:21.591Z,12948.00
2023-03-19T09:27:21.554Z,12968.00
2023-03-19T09:28:21.555Z,12852.00
2023-03-19T09:29:21.545Z,12812.00
2023-03-19T09:30:21.506Z,13028.00
2023-03-19T09:31:21.624Z,12684.00
2023-03-19T09:32:21.524Z,12588.00
2023-03-19T09:33:21.539Z,12660.00
2023-03-19T09:34:21.483Z,12428.00
2023-03-19T09:35:21.481Z,12312.00
2023-03-19T09:36:21.490Z,12232.00
2023-03-19T09:37:21.507Z,12160.00
2023-03-19T09:38:21.436Z,12084.00
2023-03-19T09:39:22.446Z,12044.00
2023-03-19T09:40:21.576Z,12168.00
2023-03-19T09:41:21.409Z,12232.00
2023-03-19T09:42:21.436Z,12412.00
2023-03-19T09:43:21.390Z,12608.00
2023-03-19T09:44:21.379Z,12896.00
2023-03-19T09:45:21.405Z,13060.00
2023-03-19T09:46:22.834Z,13472.00
2023-03-19T09:47:22.349Z,13628.00
2023-03-19T09:48:21.354Z,13808.00
2023-03-19T09:49:21.360Z,13824.00
2023-03-19T09:50:21.406Z,14008.00
2023-03-19T09:51:21.395Z,14704.00
2023-03-19T09:52:21.351Z,15112.00
2023-03-19T09:53:21.324Z,14992.00
2023-03-19T09:54:21.318Z,14696.00
2023-03-19T09:55:21.277Z,14384.00
2023-03-19T09:56:21.271Z,14584.00
2023-03-19T09:57:21.273Z,14504.00
2023-03-19T09:58:21.279Z,14292.00
2023-03-19T09:59:21.265Z,15480.00
2023-03-19T10:00:21.414Z,14636.00
2023-03-19T10:01:21.282Z,15284.00
2023-03-19T10:02:21.207Z,15552.00
2023-03-19T10:03:21.209Z,16256.00
2023-03-19T10:04:21.230Z,16256.00
2023-03-19T10:05:22.229Z,16008.00
2023-03-19T10:06:21.180Z,16608.00
2023-03-19T10:07:21.152Z,16608.00
2023-03-19T10:08:21.254Z,17088.00
2023-03-19T10:09:21.161Z,17120.00
2023-03-19T10:10:21.184Z,17408.00
2023-03-19T10:11:21.164Z,17536.00
2023-03-19T10:12:21.113Z,17312.00
2023-03-19T10:13:21.103Z,16288.00
2023-03-19T10:14:21.113Z,16016.00
2023-03-19T10:15:21.094Z,15836.00
2023-03-19T10:16:21.137Z,15432.00
2023-03-19T10:17:21.052Z,15440.00
2023-03-19T10:18:21.061Z,17856.00
2023-03-19T10:19:22.225Z,17664.00
2023-03-19T10:20:21.047Z,17952.00
2023-03-19T10:21:21.023Z,18176.00
2023-03-19T10:22:21.047Z,17184.00
2023-03-19T10:23:21.013Z,16640.00
2023-03-19T10:24:21.040Z,16168.00
2023-03-19T10:25:20.996Z,15612.00
2023-03-19T10:26:20.993Z,15260.00
2023-03-19T10:27:20.978Z,15652.00
2023-03-19T10:28:20.963Z,16004.00
2023-03-19T10:29:20.954Z,16188.00
2023-03-19T10:30:20.954Z,17152.00
2023-03-19T10:31:20.948Z,15856.00
2023-03-19T10:32:20.943Z,15348.00
2023-03-19T10:33:20.932Z,14880.00
2023-03-19T10:34:20.932Z,14864.00
2023-03-19T10:35:20.921Z,14948.00
2023-03-19T10:36:20.900Z,14944.00
2023-03-19T10:37:20.886Z,15096.00
2023-03-19T10:38:20.875Z,15540.00
2023-03-19T10:39:20.894Z,15856.00
2023-03-19T10:40:20.851Z,16672.00
2023-03-19T10:41:20.840Z,16448.00
2023-03-19T10:42:20.816Z,16576.00
2023-03-19T10:43:20.858Z,16228.00
2023-03-19T10:44:20.834Z,16272.00
2023-03-19T10:45:20.851Z,17184.00
2023-03-19T10:46:20.800Z,18176.00
2023-03-19T10:47:20.768Z,17152.00
2023-03-19T10:48:20.761Z,16704.00
2023-03-19T10:49:20.772Z,16864.00
2023-03-19T10:50:20.779Z,16704.00
2023-03-19T10:51:20.731Z,17088.00
2023-03-19T10:52:20.733Z,17152.00
2023-03-19T10:53:20.701Z,16064.00
2023-03-19T10:54:20.714Z,16704.00
2023-03-19T10:55:20.711Z,16928.00
2023-03-19T10:56:21.680Z,16264.00
2023-03-19T10:57:20.700Z,14816.00
2023-03-19T10:58:20.676Z,14368.00
2023-03-19T10:59:20.677Z,14096.00
2023-03-19T11:00:20.654Z,13984.00
2023-03-19T11:01:20.703Z,13776.00
2023-03-19T11:02:20.685Z,13856.00
2023-03-19T11:03:20.665Z,13720.00
2023-03-19T11:04:20.606Z,13700.00
2023-03-19T11:05:20.590Z,13832.00
2023-03-19T11:06:20.606Z,14256.00
2023-03-19T11:07:21.595Z,15244.00
2023-03-19T11:08:34.928Z,15464.00
2023-03-19T11:09:22.560Z,14424.00
2023-03-19T11:10:20.565Z,13508.00
2023-03-19T11:11:20.534Z,13248.00
2023-03-19T11:12:20.526Z,13064.00
2023-03-19T11:13:20.522Z,12760.00
2023-03-19T11:14:20.540Z,12136.00
2023-03-19T11:15:20.506Z,11372.00
2023-03-19T11:16:20.543Z,10664.00
2023-03-19T11:17:20.492Z,10020.00
2023-03-19T11:18:20.495Z,9496.00
2023-03-19T11:19:20.481Z,9140.00
2023-03-19T11:20:20.440Z,9008.00
2023-03-19T11:21:20.455Z,9612.00
2023-03-19T11:22:21.176Z,9080.00
2023-03-19T11:23:21.458Z,8920.00
2023-03-19T11:24:20.410Z,8916.00
2023-03-19T11:25:20.414Z,9252.00
2023-03-19T11:26:20.387Z,9836.00
2023-03-19T11:27:20.376Z,10036.00
2023-03-19T11:28:22.078Z,10324.00
2023-03-19T11:29:21.369Z,10684.00
2023-03-19T11:30:20.372Z,11160.00
2023-03-19T11:31:20.377Z,11416.00
2023-03-19T11:32:22.027Z,11952.00
2023-03-19T11:33:20.420Z,12040.00
2023-03-19T11:34:20.314Z,12584.00
2023-03-19T11:35:20.319Z,12708.00
2023-03-19T11:36:20.320Z,13052.00
2023-03-19T11:37:20.328Z,13672.00
2023-03-19T11:38:20.306Z,14076.00
2023-03-19T11:39:20.298Z,14024.00
2023-03-19T11:40:20.277Z,16576.00
2023-03-19T11:41:20.282Z,16512.00
2023-03-19T11:42:20.270Z,16160.00
2023-03-19T11:43:20.240Z,16704.00
2023-03-19T11:44:20.256Z,14644.00
2023-03-19T11:45:20.221Z,14592.00
2023-03-19T11:46:20.215Z,14456.00
2023-03-19T11:47:27.103Z,13512.00
2023-03-19T11:48:22.188Z,13112.00
2023-03-19T11:49:20.217Z,12668.00
2023-03-19T11:50:20.172Z,12204.00
2023-03-19T11:51:20.181Z,11764.00
2023-03-19T11:52:20.185Z,11440.00
2023-03-19T11:53:20.136Z,11192.00
2023-03-19T11:54:20.128Z,10876.00
2023-03-19T11:55:20.194Z,10736.00
2023-03-19T11:56:20.112Z,10624.00
2023-03-19T11:57:20.093Z,10332.00
2023-03-19T11:58:20.097Z,10012.00
2023-03-19T11:59:20.093Z,9716.00
2023-03-19T12:00:20.106Z,9440.00
2023-03-19T12:01:20.054Z,9096.00
2023-03-19T12:02:20.108Z,8344.00
2023-03-19T12:03:20.121Z,7516.00
2023-03-19T12:04:20.039Z,6784.00
2023-03-19T12:05:20.051Z,6164.00
2023-03-19T12:06:20.014Z,5676.00
2023-03-19T12:07:20.043Z,5288.00
2023-03-19T12:08:20.025Z,4924.00
2023-03-19T12:09:20.017Z,4668.00
2023-03-19T12:10:19.974Z,4528.00
2023-03-19T12:11:19.962Z,4508.00
2023-03-19T12:12:19.963Z,4720.00
2023-03-19T12:13:19.943Z,5184.00
2023-03-19T12:14:19.926Z,5428.00
2023-03-19T12:15:19.947Z,5488.00
2023-03-19T12:16:19.968Z,5552.00
2023-03-19T12:17:19.889Z,5544.00
2023-03-19T12:18:20.015Z,5620.00
2023-03-19T12:19:19.882Z,5844.00
2023-03-19T12:20:19.890Z,5980.00
2023-03-19T12:21:19.864Z,6608.00
2023-03-19T12:22:19.924Z,6320.00
2023-03-19T12:23:19.901Z,6748.00
2023-03-19T12:24:19.859Z,7232.00
2023-03-19T12:25:19.854Z,7808.00
2023-03-19T12:26:19.846Z,8288.00
2023-03-19T12:27:19.812Z,8604.00
2023-03-19T12:28:19.876Z,8980.00
2023-03-19T12:29:19.780Z,9472.00
2023-03-19T12:30:19.812Z,9900.00